Big Bear Station Historical Data
Daily Summary for April 12, 2017 Units:  English    Metric   Both
« Previous Day
Next Day »
Daily Weekly Monthly Yearly Custom
  High: Low: Average:
Temperature: 64.4 °F 32.5 °F 46.6 °F
Dew Point: 37.4 °F 21.4 °F 30.7 °F
Humidity: 92 % 22 % 58 %
Wind Speed: 6.8 mph 0.0 mph 2.1 mph
Wind Gust: -999.0 mph - -
Wind:- - West
Pressure: 30.16 in 30.12 in -
Precipitation: 0.00 in    
Historical Graphs
 
 
Tabular Data for April 12, 2017
Time Temperature Dew Point Pressure Wind Wind Speed Wind Gust Humidity Rainfall Rate (Hourly)
00:00 40.1 °F 22.9 °F 30.15 in SSW 1.7 mph -999.0 mph 50 % 0 in
00:15 40.1 °F 23.4 °F 30.15 in SSW 2.2 mph -999.0 mph 51 % 0 in
00:30 39.6 °F 22.9 °F 30.15 in SSW 1.7 mph -999.0 mph 51 % 0 in
00:46 38.5 °F 24.2 °F 30.15 in SSE 1.7 mph -999.0 mph 56 % 0 in
01:31 36.3 °F 23.7 °F 30.14 in South 1.7 mph -999.0 mph 60 % 0 in
01:47 36.1 °F 23.9 °F 30.14 in SSW 1.7 mph -999.0 mph 61 % 0 in
02:02 35.6 °F 24.6 °F 30.14 in Calm   -999.0 mph 64 % 0 in
02:17 35.8 °F 24.4 °F 30.14 in South 2.2 mph -999.0 mph 63 % 0 in
02:32 35.1 °F 25.2 °F 30.13 in South 1.7 mph -999.0 mph 67 % 0 in
02:47 35.1 °F 27.0 °F 30.13 in Calm   -999.0 mph 72 % 0 in
03:03 34.5 °F 27.4 °F 30.13 in Calm   -999.0 mph 75 % 0 in
03:18 35.1 °F 29.2 °F 30.13 in Calm   -999.0 mph 79 % 0 in
03:33 34.7 °F 29.5 °F 30.13 in Calm   -999.0 mph 81 % 0 in
03:48 34.9 °F 30.0 °F 30.13 in Calm   -999.0 mph 82 % 0 in
04:03 34.2 °F 29.6 °F 30.13 in Calm   -999.0 mph 83 % 0 in
04:19 34.7 °F 30.4 °F 30.13 in Calm   -999.0 mph 84 % 0 in
04:34 34.9 °F 30.3 °F 30.13 in Calm   -999.0 mph 83 % 0 in
04:49 34.5 °F 29.9 °F 30.13 in South 1.1 mph -999.0 mph 83 % 0 in
05:04 34.3 °F 30.0 °F 30.13 in South 2.2 mph -999.0 mph 84 % 0 in
05:19 33.6 °F 29.6 °F 30.12 in Calm   -999.0 mph 85 % 0 in
05:35 33.3 °F 29.3 °F 30.13 in Calm   -999.0 mph 85 % 0 in
05:50 33.1 °F 29.4 °F 30.13 in Calm   -999.0 mph 86 % 0 in
06:05 32.7 °F 29.0 °F 30.13 in Calm   -999.0 mph 86 % 0 in
06:20 32.5 °F 28.8 °F 30.13 in Calm   -999.0 mph 86 % 0 in
06:35 32.5 °F 29.3 °F 30.13 in Calm   -999.0 mph 88 % 0 in
06:51 33.1 °F 29.9 °F 30.13 in Calm   -999.0 mph 88 % 0 in
07:06 33.8 °F 31.2 °F 30.14 in Calm   -999.0 mph 90 % 0 in
07:21 33.6 °F 31.0 °F 30.14 in Calm   -999.0 mph 90 % 0 in
07:36 33.8 °F 31.2 °F 30.14 in Calm   -999.0 mph 90 % 0 in
07:51 34.3 °F 32.2 °F 30.14 in Calm   -999.0 mph 92 % 0 in
08:07 36.5 °F 34.1 °F 30.14 in Calm   -999.0 mph 91 % 0 in
08:22 38.5 °F 33.5 °F 30.15 in Calm   -999.0 mph 82 % 0 in
08:37 43.3 °F 32.7 °F 30.14 in WNW 1.7 mph -999.0 mph 66 % 0 in
08:52 46.9 °F 31.6 °F 30.14 in WNW 2.7 mph -999.0 mph 55 % 0 in
09:08 48.4 °F 33.0 °F 30.14 in NW 1.7 mph -999.0 mph 55 % 0 in
09:23 49.6 °F 33.2 °F 30.15 in NW 3.7 mph -999.0 mph 53 % 0 in
09:38 50.5 °F 33.5 °F 30.15 in WNW 3.2 mph -999.0 mph 52 % 0 in
09:53 51.3 °F 33.3 °F 30.15 in NNW 4.7 mph -999.0 mph 50 % 0 in
10:24 54.1 °F 33.2 °F 30.16 in SW 3.2 mph -999.0 mph 45 % 0 in
10:39 55.8 °F 33.0 °F 30.16 in NW 3.7 mph -999.0 mph 42 % 0 in
10:54 57.0 °F 34.1 °F 30.16 in NW 5.3 mph -999.0 mph 42 % 0 in
11:10 58.1 °F 33.3 °F 30.16 in NNW 4.7 mph -999.0 mph 39 % 0 in
11:25 59.0 °F 34.7 °F 30.16 in NNW 6.8 mph -999.0 mph 40 % 0 in
11:40 59.2 °F 34.2 °F 30.16 in NNW 4.2 mph -999.0 mph 39 % 0 in
11:55 60.3 °F 34.6 °F 30.15 in NNW 5.3 mph -999.0 mph 38 % 0 in
12:11 61.2 °F 30.3 °F 30.16 in WNW 4.2 mph -999.0 mph 31 % 0 in
12:26 61.2 °F 33.3 °F 30.16 in NW 5.8 mph -999.0 mph 35 % 0 in
12:42 61.5 °F 32.1 °F 30.16 in WNW 4.7 mph -999.0 mph 33 % 0 in
12:57 62.1 °F 32.6 °F 30.15 in NW 4.7 mph -999.0 mph 33 % 0 in
13:12 63.0 °F 32.7 °F 30.15 in NW 3.2 mph -999.0 mph 32 % 0 in
13:27 63.5 °F 32.3 °F 30.16 in NW 5.8 mph -999.0 mph 31 % 0 in
13:58 62.6 °F 28.1 °F 30.15 in NNW 5.3 mph -999.0 mph 27 % 0 in
14:14 63.9 °F 31.0 °F 30.15 in NW 4.2 mph -999.0 mph 29 % 0 in
14:29 63.9 °F 30.1 °F 30.15 in SW 4.2 mph -999.0 mph 28 % 0 in
14:44 63.5 °F 28.0 °F 30.14 in NW 5.3 mph -999.0 mph 26 % 0 in
14:59 64.4 °F 24.7 °F 30.14 in SSW 3.2 mph -999.0 mph 22 % 0 in
15:30 63.5 °F 32.3 °F 30.15 in NW 6.3 mph -999.0 mph 31 % 0 in
15:45 61.0 °F 32.4 °F 30.14 in NW 3.2 mph -999.0 mph 34 % 0 in
16:01 60.3 °F 31.1 °F 30.14 in NW 3.7 mph -999.0 mph 33 % 0 in
16:16 58.6 °F 31.0 °F 30.14 in WNW 3.7 mph -999.0 mph 35 % 0 in
16:31 58.8 °F 31.2 °F 30.14 in NNE 6.8 mph -999.0 mph 35 % 0 in
16:46 61.9 °F 32.5 °F 30.14 in NNW 5.3 mph -999.0 mph 33 % 0 in
17:02 61.9 °F 33.9 °F 30.14 in ESE 2.7 mph -999.0 mph 35 % 0 in
17:18 60.4 °F 33.3 °F 30.14 in NW 2.2 mph -999.0 mph 36 % 0 in
17:33 60.4 °F 34.7 °F 30.14 in NNW 3.2 mph -999.0 mph 38 % 0 in
17:48 61.9 °F 30.9 °F 30.14 in SW 4.7 mph -999.0 mph 31 % 0 in
18:18 58.5 °F 33.0 °F 30.14 in WSW 1.1 mph -999.0 mph 38 % 0 in
18:34 56.3 °F 37.4 °F 30.14 in North 3.7 mph -999.0 mph 49 % 0 in
18:49 50.7 °F 36.0 °F 30.14 in NW 3.2 mph -999.0 mph 57 % 0 in
19:04 48.9 °F 35.6 °F 30.13 in NW 2.7 mph -999.0 mph 60 % 0 in
19:19 47.1 °F 35.5 °F 30.13 in North 2.2 mph -999.0 mph 64 % 0 in
19:35 45.9 °F 35.6 °F 30.13 in Calm   -999.0 mph 67 % 0 in
19:50 45.0 °F 35.8 °F 30.13 in Calm   -999.0 mph 70 % 0 in
20:05 44.2 °F 35.4 °F 30.13 in Calm   -999.0 mph 71 % 0 in
20:20 43.7 °F 33.5 °F 30.14 in Calm   -999.0 mph 67 % 0 in
20:35 43.3 °F 32.7 °F 30.14 in Calm   -999.0 mph 66 % 0 in
20:51 42.8 °F 32.6 °F 30.14 in Calm   -999.0 mph 67 % 0 in
21:06 42.8 °F 34.4 °F 30.15 in Calm   -999.0 mph 72 % 0 in
21:21 42.1 °F 33.7 °F 30.15 in Calm   -999.0 mph 72 % 0 in
21:36 43.0 °F 33.2 °F 30.15 in SSE 2.2 mph -999.0 mph 68 % 0 in
21:52 42.4 °F 30.3 °F 30.15 in ESE 1.7 mph -999.0 mph 62 % 0 in
22:07 42.1 °F 29.6 °F 30.15 in South 1.7 mph -999.0 mph 61 % 0 in
22:22 41.5 °F 27.4 °F 30.14 in SSW 1.7 mph -999.0 mph 57 % 0 in
22:37 41.2 °F 25.8 °F 30.14 in SSE 1.7 mph -999.0 mph 54 % 0 in
22:53 40.3 °F 27.5 °F 30.14 in SSE 2.7 mph -999.0 mph 60 % 0 in
23:08 40.6 °F 21.4 °F 30.13 in Calm   -999.0 mph 46 % 0 in
23:23 41.7 °F 24.4 °F 30.13 in North 2.7 mph -999.0 mph 50 % 0 in
23:38 41.4 °F 29.0 °F 30.13 in SE 2.2 mph -999.0 mph 61 % 0 in
23:54 41.7 °F 30.8 °F 30.13 in Calm   -999.0 mph 65 % 0 in
Big Bear CA Weather
Compliments of Weather Underground - 1.5 mb